OAL117 LGTS-LTAI
Flight info
| Callsign | OAL117 |
|---|---|
| Flight time | N/A |
| Altitude | 35000 |
| Route | ARNAS DCT PEREN UN128 RIKSO UP14 LAVTA UN135 NESIL |
| Aircraft | A320/M-SDE3FGHIRWY/LB1 |
Departure
| Time | 2026-05-05 15:28 |
|---|---|
| Airport | Thessaloniki Macedonia International Airport (LGTS) |
Arrival
| Time | N/A |
|---|---|
| Airport | Antalya International Airport (LTAI) |
| Time | Latitude | Longitude | Altitude | Speed | Heading |
|---|---|---|---|---|---|
| 2026-05-05 15:19 | 40.52433 | 22.97429 | 28 ft | 0 kts | 44° |
| 2026-05-05 15:20 | 40.52428 | 22.97423 | 28 ft | 4 kts | 44° |
| 2026-05-05 15:21 | 40.52411 | 22.97401 | 28 ft | 4 kts | 44° |
| 2026-05-05 15:21 | 40.52390 | 22.97384 | 28 ft | 4 kts | 359° |
| 2026-05-05 15:21 | 40.52375 | 22.97386 | 28 ft | 3 kts | 322° |
| 2026-05-05 15:21 | 40.52379 | 22.97381 | 28 ft | 0 kts | 320° |
| 2026-05-05 15:24 | 40.52389 | 22.97367 | 28 ft | 6 kts | 304° |
| 2026-05-05 15:24 | 40.52388 | 22.97262 | 28 ft | 16 kts | 253° |
| 2026-05-05 15:24 | 40.52392 | 22.97166 | 28 ft | 10 kts | 307° |
| 2026-05-05 15:24 | 40.52458 | 22.97124 | 28 ft | 11 kts | 343° |
| 2026-05-05 15:25 | 40.52539 | 22.97096 | 29 ft | 13 kts | 345° |
| 2026-05-05 15:25 | 40.52630 | 22.97069 | 29 ft | 14 kts | 347° |
| 2026-05-05 15:25 | 40.52732 | 22.97038 | 29 ft | 16 kts | 347° |
| 2026-05-05 15:25 | 40.52845 | 22.97002 | 29 ft | 18 kts | 346° |
| 2026-05-05 15:26 | 40.52970 | 22.96961 | 29 ft | 19 kts | 346° |
| 2026-05-05 15:26 | 40.53063 | 22.96896 | 28 ft | 12 kts | 281° |
| 2026-05-05 15:26 | 40.53043 | 22.96825 | 28 ft | 9 kts | 225° |
| 2026-05-05 15:26 | 40.52981 | 22.96795 | 28 ft | 11 kts | 180° |
| 2026-05-05 15:27 | 40.52813 | 22.96830 | 30 ft | 56 kts | 166° |
| 2026-05-05 15:27 | 40.52212 | 22.97014 | 27 ft | 118 kts | 167° |
| 2026-05-05 15:27 | 40.51256 | 22.97273 | 63 ft | 160 kts | 171° |
| 2026-05-05 15:27 | 40.50131 | 22.97561 | 578 ft | 166 kts | 170° |
| 2026-05-05 15:28 | 40.48988 | 22.97857 | 1298 ft | 166 kts | 170° |
| 2026-05-05 15:28 | 40.47872 | 22.98173 | 1912 ft | 169 kts | 171° |
| 2026-05-05 15:28 | 40.46643 | 22.98526 | 2255 ft | 191 kts | 171° |
| 2026-05-05 15:28 | 40.45259 | 22.98919 | 2612 ft | 215 kts | 170° |
| 2026-05-05 15:29 | 40.43725 | 22.99356 | 3029 ft | 236 kts | 169° |
| 2026-05-05 15:29 | 40.42075 | 22.99828 | 3668 ft | 246 kts | 169° |
| 2026-05-05 15:29 | 40.40396 | 23.00308 | 4451 ft | 251 kts | 169° |
| 2026-05-05 15:29 | 40.38626 | 23.00804 | 4986 ft | 269 kts | 169° |
| 2026-05-05 15:30 | 40.36659 | 23.01518 | 4723 ft | 316 kts | 160° |
| 2026-05-05 15:30 | 40.34557 | 23.02822 | 4528 ft | 351 kts | 150° |
| 2026-05-05 15:30 | 40.32461 | 23.04676 | 4321 ft | 383 kts | 142° |
| 2026-05-05 15:30 | 40.30383 | 23.07000 | 4898 ft | 387 kts | 139° |
| 2026-05-05 15:31 | 40.28345 | 23.09250 | 5861 ft | 388 kts | 143° |
| 2026-05-05 15:31 | 40.25900 | 23.10872 | 6442 ft | 389 kts | 159° |
| 2026-05-05 15:31 | 40.23424 | 23.12155 | 7729 ft | 379 kts | 158° |
| 2026-05-05 15:31 | 40.20838 | 23.13184 | 7932 ft | 401 kts | 172° |
| 2026-05-05 15:32 | 40.18044 | 23.13086 | 8089 ft | 403 kts | 193° |
| 2026-05-05 15:32 | 40.15444 | 23.11789 | 8410 ft | 402 kts | 212° |
| 2026-05-05 15:32 | 40.13308 | 23.09461 | 8719 ft | 400 kts | 231° |
| 2026-05-05 15:32 | 40.11874 | 23.06368 | 8987 ft | 399 kts | 250° |
| 2026-05-05 15:33 | 40.11303 | 23.02847 | 9303 ft | 397 kts | 270° |
| 2026-05-05 15:33 | 40.11644 | 22.99284 | 9607 ft | 396 kts | 288° |
| 2026-05-05 15:33 | 40.12800 | 22.96036 | 9887 ft | 395 kts | 305° |
| 2026-05-05 15:33 | 40.14636 | 22.93402 | 10075 ft | 394 kts | 322° |
| 2026-05-05 15:34 | 40.17006 | 22.91616 | 10313 ft | 395 kts | 339° |
| 2026-05-05 15:34 | 40.19697 | 22.90831 | 10585 ft | 396 kts | 356° |
| 2026-05-05 15:34 | 40.22409 | 22.91069 | 10832 ft | 398 kts | 8° |
| 2026-05-05 15:34 | 40.25163 | 22.91613 | 11087 ft | 399 kts | 8° |
| 2026-05-05 15:35 | 40.27921 | 22.92166 | 11368 ft | 400 kts | 8° |
| 2026-05-05 15:35 | 40.30678 | 22.92726 | 11628 ft | 402 kts | 8° |
| 2026-05-05 15:35 | 40.33451 | 22.93287 | 11502 ft | 404 kts | 8° |
| 2026-05-05 15:35 | 40.36240 | 22.93841 | 11078 ft | 403 kts | 8° |
| 2026-05-05 15:36 | 40.38997 | 22.94388 | 10845 ft | 399 kts | 8° |
| 2026-05-05 15:36 | 40.41741 | 22.94934 | 10509 ft | 399 kts | 8° |
| 2026-05-05 15:36 | 40.44477 | 22.95479 | 10192 ft | 398 kts | 8° |
| 2026-05-05 15:36 | 40.47210 | 22.96025 | 9906 ft | 397 kts | 8° |
| 2026-05-05 15:37 | 40.49916 | 22.96469 | 9443 ft | 396 kts | 2° |
| 2026-05-05 15:37 | 40.52644 | 22.96578 | 9338 ft | 387 kts | 349° |
| 2026-05-05 15:37 | 40.55130 | 22.95382 | 9348 ft | 379 kts | 327° |
| 2026-05-05 15:37 | 40.57265 | 22.93253 | 8994 ft | 395 kts | 318° |
| 2026-05-05 15:38 | 40.59177 | 22.90647 | 9037 ft | 404 kts | 313° |
| 2026-05-05 15:38 | 40.61076 | 22.87693 | 9236 ft | 420 kts | 308° |
| 2026-05-05 15:38 | 40.62776 | 22.84778 | 11031 ft | 389 kts | 309° |
| 2026-05-05 15:38 | 40.64519 | 22.82013 | 11323 ft | 399 kts | 313° |
| 2026-05-05 15:39 | 40.66397 | 22.79297 | 10852 ft | 399 kts | 313° |
| 2026-05-05 15:39 | 40.68259 | 22.76632 | 10429 ft | 398 kts | 313° |
| 2026-05-05 15:39 | 40.70138 | 22.73954 | 10139 ft | 397 kts | 314° |
| 2026-05-05 15:39 | 40.72017 | 22.71284 | 9956 ft | 396 kts | 314° |
| 2026-05-05 15:40 | 40.73869 | 22.68656 | 9824 ft | 395 kts | 313° |
| 2026-05-05 15:40 | 40.75747 | 22.65998 | 9743 ft | 395 kts | 314° |
| 2026-05-05 15:40 | 40.77626 | 22.63341 | 9696 ft | 395 kts | 313° |
| 2026-05-05 15:40 | 40.79507 | 22.60686 | 9679 ft | 396 kts | 313° |
| 2026-05-05 15:41 | 40.81119 | 22.57737 | 9664 ft | 397 kts | 297° |
| 2026-05-05 15:41 | 40.82015 | 22.54300 | 9654 ft | 398 kts | 283° |
| 2026-05-05 15:41 | 40.82712 | 22.50801 | 9650 ft | 397 kts | 293° |
| 2026-05-05 15:41 | 40.84154 | 22.47707 | 9643 ft | 396 kts | 312° |
| 2026-05-05 15:42 | 40.86281 | 22.45425 | 9639 ft | 396 kts | 331° |
| 2026-05-05 15:42 | 40.88871 | 22.44195 | 9634 ft | 396 kts | 350° |
| 2026-05-05 15:42 | 40.91621 | 22.44170 | 9634 ft | 397 kts | 9° |
| 2026-05-05 15:42 | 40.94202 | 22.45331 | 9634 ft | 398 kts | 28° |
| 2026-05-05 15:43 | 40.96391 | 22.47571 | 9551 ft | 399 kts | 47° |
| 2026-05-05 15:43 | 40.97917 | 22.50639 | 9352 ft | 400 kts | 66° |
| 2026-05-05 15:43 | 40.98589 | 22.54193 | 9201 ft | 401 kts | 85° |
| 2026-05-05 15:43 | 40.98337 | 22.57868 | 9105 ft | 403 kts | 104° |
| 2026-05-05 15:44 | 40.97252 | 22.61309 | 9042 ft | 404 kts | 116° |
| 2026-05-05 15:44 | 40.95991 | 22.64573 | 8792 ft | 399 kts | 116° |
| 2026-05-05 15:44 | 40.94740 | 22.67774 | 8430 ft | 384 kts | 116° |
| 2026-05-05 15:44 | 40.93529 | 22.70861 | 8083 ft | 371 kts | 116° |
| 2026-05-05 15:45 | 40.92348 | 22.73875 | 7647 ft | 363 kts | 116° |
| 2026-05-05 15:45 | 40.91141 | 22.76722 | 7211 ft | 356 kts | 123° |
| 2026-05-05 15:45 | 40.89541 | 22.79197 | 6783 ft | 350 kts | 134° |
| 2026-05-05 15:45 | 40.87812 | 22.81452 | 6341 ft | 345 kts | 140° |
| 2026-05-05 15:46 | 40.85916 | 22.83365 | 5885 ft | 340 kts | 144° |
| 2026-05-05 15:46 | 40.84039 | 22.85174 | 5441 ft | 336 kts | 144° |
| 2026-05-05 15:46 | 40.82160 | 22.86991 | 4987 ft | 333 kts | 144° |
| 2026-05-05 15:46 | 40.80290 | 22.88813 | 4550 ft | 332 kts | 144° |
| 2026-05-05 15:47 | 40.78458 | 22.90605 | 4101 ft | 329 kts | 144° |
| 2026-05-05 15:47 | 40.77212 | 22.91817 | 3792 ft | 328 kts | 144° |
| 2026-05-05 15:47 | 40.74597 | 22.93686 | 3348 ft | 317 kts | 165° |
| 2026-05-05 15:47 | 40.72592 | 22.94663 | 3467 ft | 299 kts | 153° |
| 2026-05-05 15:48 | 40.70834 | 22.95969 | 3497 ft | 282 kts | 153° |
| 2026-05-05 15:48 | 40.69138 | 22.97122 | 3504 ft | 266 kts | 155° |
| 2026-05-05 15:48 | 40.67340 | 22.97589 | 2858 ft | 272 kts | 189° |
| 2026-05-05 15:48 | 40.65611 | 22.96516 | 1808 ft | 293 kts | 218° |
| 2026-05-05 15:49 | 40.63993 | 22.94949 | 1953 ft | 268 kts | 201° |
| 2026-05-05 15:49 | 40.62322 | 22.94373 | 2560 ft | 233 kts | 184° |
| 2026-05-05 15:49 | 40.60722 | 22.94653 | 1978 ft | 243 kts | 170° |
| 2026-05-05 15:49 | 40.58987 | 22.95127 | 1447 ft | 257 kts | 171° |
| 2026-05-05 15:50 | 40.57239 | 22.95529 | 1169 ft | 254 kts | 168° |
| 2026-05-05 15:50 | 40.55521 | 22.96022 | 537 ft | 250 kts | 169° |
| 2026-05-05 15:50 | 40.53878 | 22.96498 | 207 ft | 234 kts | 166° |
| 2026-05-05 15:50 | 40.52378 | 22.97001 | 87 ft | 207 kts | 168° |
| 2026-05-05 15:51 | 40.51126 | 22.97333 | 28 ft | 145 kts | 168° |
| 2026-05-05 15:51 | 40.50892 | 22.97416 | 29 ft | 0 kts | 162° |
| 2026-05-05 15:51 | 40.50898 | 22.97415 | 27 ft | 1 kts | 358° |
| 2026-05-05 15:51 | 40.50933 | 22.97447 | 27 ft | 9 kts | 53° |
| 2026-05-05 15:52 | 40.50972 | 22.97524 | 28 ft | 11 kts | 46° |